John G — WDF2677 — position and weather

sailwx.info

Track history (hours):
 
Tides and Currents Weather Stations Pressure Air Temp Water Temp Dewpoint Dewpoint Depression Visibility Wind Speed Wind Dir Waves Ship Positions

John G

More information available from US FCC via Universal Licensing System and Coast Guard Vessel Documentation Center.

Last reported at 2014-Aug-21 21:33 UTC. Time now 2014-Aug-21 22:03 UTC.
Position N 30°03' W 090°36'.

Length 30 m; draft 3.3 m.

Type: Towing. MMSI: 367009680.

Date/timePositionNaut miles runAvg speedWind from/ knotsBaromVisibWave heightAir tempDewpointWater temp
2014-Aug-21 21:33N 30°03' W 090°36'0 0.0
2014-Aug-21 20:34N 30°03' W 090°36'0 0.0
2014-Aug-21 19:33N 30°03' W 090°36'0 0.0
2014-Aug-21 18:33N 30°03' W 090°36'0 0.0
2014-Aug-21 17:33N 30°03' W 090°36'0 0.0
2014-Aug-21 16:33N 30°03' W 090°36'0 0.0
2014-Aug-21 15:33N 30°03' W 090°36'0 0.0
2014-Aug-21 14:33N 30°03' W 090°36'0 0.2
2014-Aug-21 13:33N 30°02' W 090°36'0 0.0
2014-Aug-21 12:33N 30°02' W 090°36'0 0.0
2014-Aug-21 11:33N 30°02' W 090°36'0 0.0
2014-Aug-21 10:33N 30°02' W 090°36'0 0.0
2014-Aug-21 09:33N 30°02' W 090°36'0 0.0
2014-Aug-21 08:33N 30°02' W 090°36'0 0.0
2014-Aug-21 07:34N 30°02' W 090°36'0 0.0
2014-Aug-21 06:33N 30°02' W 090°36'0 0.0
2014-Aug-21 05:33N 30°02' W 090°36'0 0.2
2014-Aug-21 04:33N 30°02' W 090°36'0 0.0
2014-Aug-21 03:33N 30°02' W 090°36'0 0.0
2014-Aug-21 02:34N 30°02' W 090°36'0 0.0
2014-Aug-21 01:33N 30°02' W 090°36'0 0.0
2014-Aug-21 00:33N 30°02' W 090°36'0 0.0
2014-Aug-20 23:33N 30°02' W 090°36'0 0.1
2014-Aug-20 22:33N 30°03' W 090°36'0 0.0
2014-Aug-20 21:33N 30°02' W 090°36'0 0.0
2014-Aug-20 20:34N 30°02' W 090°36'0 0.0
2014-Aug-20 19:33N 30°02' W 090°36'0 0.0
2014-Aug-20 18:33N 30°02' W 090°36'0 0.0
2014-Aug-20 17:33N 30°02' W 090°36'0 0.0
2014-Aug-20 16:33N 30°02' W 090°36'1 0.4
2014-Aug-20 14:31N 30°02' W 090°37'1 0.8
2014-Aug-20 13:33N 30°02' W 090°36'0 0.0
2014-Aug-20 12:33N 30°02' W 090°36'0 0.0
2014-Aug-20 11:34N 30°02' W 090°36'0 0.0
2014-Aug-20 10:34N 30°02' W 090°36'0 0.0
2014-Aug-20 09:33N 30°02' W 090°36'0 0.0
2014-Aug-20 08:33N 30°02' W 090°36'0 0.0
2014-Aug-20 07:33N 30°02' W 090°36'0 0.0
2014-Aug-20 06:33N 30°02' W 090°36'0 0.0
2014-Aug-20 05:33N 30°02' W 090°36'0 0.0
2014-Aug-20 04:33N 30°02' W 090°36'0 0.0
2014-Aug-20 03:33N 30°02' W 090°36'0 0.0
2014-Aug-20 02:33N 30°02' W 090°36'0 0.0
2014-Aug-20 01:33N 30°02' W 090°36'0 0.0
2014-Aug-20 00:33N 30°02' W 090°36'0 0.0
2014-Aug-19 23:34N 30°02' W 090°36'0 0.0
2014-Aug-19 22:33N 30°02' W 090°36'0 0.0
2014-Aug-19 21:33N 30°02' W 090°36'0 0.0
2014-Aug-19 20:33N 30°02' W 090°36'0 0.0
2014-Aug-19 19:33N 30°02' W 090°36'0 0.0
2014-Aug-19 18:34N 30°02' W 090°36'0 0.0
2014-Aug-19 17:33N 30°02' W 090°36'3 0.5
2014-Aug-19 12:33N 30°03' W 090°39'0 0.0
2014-Aug-19 11:33N 30°03' W 090°39'0 0.0
2014-Aug-19 10:34N 30°03' W 090°39'0 0.0
2014-Aug-19 09:33N 30°03' W 090°39'0 0.0
2014-Aug-19 08:33N 30°03' W 090°39'0 0.0
2014-Aug-19 07:33N 30°03' W 090°39'0 0.0
2014-Aug-19 06:31N 30°03' W 090°39'0 0.0
2014-Aug-19 05:32N 30°03' W 090°39'0 0.0
2014-Aug-19 04:33N 30°03' W 090°39'0 0.0
2014-Aug-19 03:33N 30°03' W 090°39'0 0.0
2014-Aug-19 02:33N 30°03' W 090°39'0 0.0
2014-Aug-19 01:33N 30°03' W 090°39'0 0.0
2014-Aug-19 00:33N 30°03' W 090°39'0 0.0
2014-Aug-18 23:34N 30°03' W 090°39'2 1.9
2014-Aug-18 22:34N 30°02' W 090°37'  
2014-Aug-14 16:33N 30°03' W 090°33'10 2.5
2014-Aug-14 12:33N 30°01' W 090°44'5 5.1
2014-Aug-14 11:33N 29°59' W 090°49'8 6.3
2014-Aug-14 10:20N 30°05' W 090°54'6 3.4
2014-Aug-14 08:33N 30°09' W 090°60'2 0.1
2014-Aug-13 04:15N 30°07' W 091°02'6 3.4
2014-Aug-13 02:25N 30°07' W 090°55'0 0.0
2014-Aug-12 11:12N 30°07' W 090°55'0 0.3
2014-Aug-12 10:31N 30°07' W 090°55'  
Track history (hours):
 
Tides and Currents Weather Stations Pressure Air Temp Water Temp Dewpoint Dewpoint Depression Visibility Wind Speed Wind Dir Waves Ship Positions

John G

More information available from US FCC via Universal Licensing System and Coast Guard Vessel Documentation Center.

Last reported at 2014-Aug-21 21:33 UTC. Time now 2014-Aug-21 22:03 UTC.
Position N 30°03' W 090°36'.

Length 30 m; draft 3.3 m.

Type: Towing. MMSI: 367009680.

Date/timePositionNaut miles runAvg speedWind from/ knotsBaromVisibWave heightAir tempDewpointWater temp
2014-Aug-21 21:33N 30°03' W 090°36'0 0.0
2014-Aug-21 20:34N 30°03' W 090°36'0 0.0
2014-Aug-21 19:33N 30°03' W 090°36'0 0.0
2014-Aug-21 18:33N 30°03' W 090°36'0 0.0
2014-Aug-21 17:33N 30°03' W 090°36'0 0.0
2014-Aug-21 16:33N 30°03' W 090°36'0 0.0
2014-Aug-21 15:33N 30°03' W 090°36'0 0.0
2014-Aug-21 14:33N 30°03' W 090°36'0 0.2
2014-Aug-21 13:33N 30°02' W 090°36'0 0.0
2014-Aug-21 12:33N 30°02' W 090°36'0 0.0
2014-Aug-21 11:33N 30°02' W 090°36'0 0.0
2014-Aug-21 10:33N 30°02' W 090°36'0 0.0
2014-Aug-21 09:33N 30°02' W 090°36'0 0.0
2014-Aug-21 08:33N 30°02' W 090°36'0 0.0
2014-Aug-21 07:34N 30°02' W 090°36'0 0.0
2014-Aug-21 06:33N 30°02' W 090°36'0 0.0
2014-Aug-21 05:33N 30°02' W 090°36'0 0.2
2014-Aug-21 04:33N 30°02' W 090°36'0 0.0
2014-Aug-21 03:33N 30°02' W 090°36'0 0.0
2014-Aug-21 02:34N 30°02' W 090°36'0 0.0
2014-Aug-21 01:33N 30°02' W 090°36'0 0.0
2014-Aug-21 00:33N 30°02' W 090°36'0 0.0
2014-Aug-20 23:33N 30°02' W 090°36'0 0.1
2014-Aug-20 22:33N 30°03' W 090°36'0 0.0
2014-Aug-20 21:33N 30°02' W 090°36'0 0.0
2014-Aug-20 20:34N 30°02' W 090°36'0 0.0
2014-Aug-20 19:33N 30°02' W 090°36'0 0.0
2014-Aug-20 18:33N 30°02' W 090°36'0 0.0
2014-Aug-20 17:33N 30°02' W 090°36'0 0.0
2014-Aug-20 16:33N 30°02' W 090°36'1 0.4
2014-Aug-20 14:31N 30°02' W 090°37'1 0.8
2014-Aug-20 13:33N 30°02' W 090°36'0 0.0
2014-Aug-20 12:33N 30°02' W 090°36'0 0.0
2014-Aug-20 11:34N 30°02' W 090°36'0 0.0
2014-Aug-20 10:34N 30°02' W 090°36'0 0.0
2014-Aug-20 09:33N 30°02' W 090°36'0 0.0
2014-Aug-20 08:33N 30°02' W 090°36'0 0.0
2014-Aug-20 07:33N 30°02' W 090°36'0 0.0
2014-Aug-20 06:33N 30°02' W 090°36'0 0.0
2014-Aug-20 05:33N 30°02' W 090°36'0 0.0
2014-Aug-20 04:33N 30°02' W 090°36'0 0.0
2014-Aug-20 03:33N 30°02' W 090°36'0 0.0
2014-Aug-20 02:33N 30°02' W 090°36'0 0.0
2014-Aug-20 01:33N 30°02' W 090°36'0 0.0
2014-Aug-20 00:33N 30°02' W 090°36'0 0.0
2014-Aug-19 23:34N 30°02' W 090°36'0 0.0
2014-Aug-19 22:33N 30°02' W 090°36'0 0.0
2014-Aug-19 21:33N 30°02' W 090°36'0 0.0
2014-Aug-19 20:33N 30°02' W 090°36'0 0.0
2014-Aug-19 19:33N 30°02' W 090°36'0 0.0
2014-Aug-19 18:34N 30°02' W 090°36'0 0.0
2014-Aug-19 17:33N 30°02' W 090°36'3 0.5
2014-Aug-19 12:33N 30°03' W 090°39'0 0.0
2014-Aug-19 11:33N 30°03' W 090°39'0 0.0
2014-Aug-19 10:34N 30°03' W 090°39'0 0.0
2014-Aug-19 09:33N 30°03' W 090°39'0 0.0
2014-Aug-19 08:33N 30°03' W 090°39'0 0.0
2014-Aug-19 07:33N 30°03' W 090°39'0 0.0
2014-Aug-19 06:31N 30°03' W 090°39'0 0.0
2014-Aug-19 05:32N 30°03' W 090°39'0 0.0
2014-Aug-19 04:33N 30°03' W 090°39'0 0.0
2014-Aug-19 03:33N 30°03' W 090°39'0 0.0
2014-Aug-19 02:33N 30°03' W 090°39'0 0.0
2014-Aug-19 01:33N 30°03' W 090°39'0 0.0
2014-Aug-19 00:33N 30°03' W 090°39'0 0.0
2014-Aug-18 23:34N 30°03' W 090°39'2 1.9
2014-Aug-18 22:34N 30°02' W 090°37'  
2014-Aug-14 16:33N 30°03' W 090°33'10 2.5
2014-Aug-14 12:33N 30°01' W 090°44'5 5.1
2014-Aug-14 11:33N 29°59' W 090°49'8 6.3
2014-Aug-14 10:20N 30°05' W 090°54'6 3.4
2014-Aug-14 08:33N 30°09' W 090°60'2 0.1
2014-Aug-13 04:15N 30°07' W 091°02'6 3.4
2014-Aug-13 02:25N 30°07' W 090°55'0 0.0
2014-Aug-12 11:12N 30°07' W 090°55'0 0.3
2014-Aug-12 10:31N 30°07' W 090°55'  

Dump ship's entire track history